createdAt,value
2022-12-05T00:01:27.579Z,100925.18
2022-12-05T00:03:57.621Z,100927.25
2022-12-05T00:06:27.036Z,100925.67
2022-12-05T00:08:55.928Z,100925.77
2022-12-05T00:11:26.567Z,100925.16
2022-12-05T00:13:56.060Z,100928.13
2022-12-05T00:16:25.432Z,100926.51
2022-12-05T00:18:53.803Z,100924.42
2022-12-05T00:21:24.106Z,100924.40
2022-12-05T00:23:53.546Z,100922.64
2022-12-05T00:26:21.783Z,100919.56
2022-12-05T00:28:50.372Z,100916.30
2022-12-05T00:31:21.194Z,100922.39
2022-12-05T00:33:49.584Z,100920.45
2022-12-05T00:36:24.549Z,100918.02
2022-12-05T00:38:53.164Z,100914.72
2022-12-05T00:41:23.632Z,100915.42
2022-12-05T00:43:52.502Z,100916.41
2022-12-05T00:46:23.280Z,100917.60
2022-12-05T00:48:53.383Z,100912.90
2022-12-05T00:51:24.569Z,100912.77
2022-12-05T00:53:52.143Z,100909.46
2022-12-05T00:56:24.276Z,100911.25
2022-12-05T00:58:54.767Z,100911.50
2022-12-05T01:01:28.463Z,100910.77
2022-12-05T01:03:58.263Z,100912.85
2022-12-05T01:06:27.536Z,100911.63
2022-12-05T01:08:56.750Z,100906.59
2022-12-05T01:11:26.004Z,100911.07
2022-12-05T01:13:54.287Z,100908.56
2022-12-05T01:16:27.578Z,100909.53
2022-12-05T01:18:56.821Z,100909.14
2022-12-05T01:21:24.671Z,100905.75
2022-12-05T01:23:52.560Z,100904.14
2022-12-05T01:26:22.108Z,100898.82
2022-12-05T01:28:50.736Z,100897.47
2022-12-05T01:31:21.590Z,100896.17
2022-12-05T01:33:49.736Z,100887.80
2022-12-05T01:36:18.106Z,100887.95
2022-12-05T01:38:45.757Z,100889.83
2022-12-05T01:41:20.893Z,100888.80
2022-12-05T01:44:28.587Z,100883.41
2022-12-05T01:46:56.954Z,100882.16
2022-12-05T01:49:27.471Z,100875.52
2022-12-05T01:51:58.928Z,100876.37
2022-12-05T01:54:26.851Z,100879.14
2022-12-05T01:57:00.264Z,100881.33
2022-12-05T01:59:32.227Z,100884.40
2022-12-05T02:02:00.309Z,100891.11
2022-12-05T02:04:28.405Z,100891.51
2022-12-05T02:06:55.974Z,100892.80
2022-12-05T02:09:23.810Z,100896.38
2022-12-05T02:11:58.881Z,100894.30
2022-12-05T02:15:05.044Z,100889.60
2022-12-05T02:17:56.678Z,100891.98
2022-12-05T02:20:42.998Z,100887.98
2022-12-05T02:23:33.784Z,100890.29
2022-12-05T02:26:37.392Z,100884.09
2022-12-05T02:29:16.366Z,100887.88
2022-12-05T02:31:51.795Z,100896.36
2022-12-05T02:34:45.035Z,100904.81
2022-12-05T02:37:26.236Z,100904.65
2022-12-05T02:40:15.413Z,100900.81
2022-12-05T02:43:09.509Z,100909.16
2022-12-05T02:45:40.770Z,100905.48
2022-12-05T02:48:10.935Z,100907.38
2022-12-05T02:50:40.448Z,100897.48
2022-12-05T02:53:11.876Z,100896.47
2022-12-05T02:55:41.977Z,100894.02
2022-12-05T02:58:15.850Z,100897.52
2022-12-05T03:00:45.319Z,100899.41
2022-12-05T03:03:19.537Z,100906.90
2022-12-05T03:05:57.112Z,100911.05
2022-12-05T03:08:31.372Z,100905.16
2022-12-05T03:11:00.299Z,100914.70
2022-12-05T03:13:34.120Z,100916.44
2022-12-05T03:16:09.017Z,100917.29
2022-12-05T03:18:43.798Z,100913.94
2022-12-05T03:21:25.438Z,100918.30
2022-12-05T03:24:01.482Z,100916.20
2022-12-05T03:26:40.993Z,100914.52
2022-12-05T03:29:29.264Z,100912.64
2022-12-05T03:32:26.001Z,100907.12
2022-12-05T03:35:18.213Z,100906.43
2022-12-05T03:38:11.767Z,100906.13
2022-12-05T03:40:52.893Z,100908.80
2022-12-05T03:43:48.071Z,100911.27
2022-12-05T03:46:32.333Z,100915.98
2022-12-05T03:49:02.833Z,100915.81
2022-12-05T03:51:39.967Z,100919.45
2022-12-05T03:54:15.089Z,100918.05
2022-12-05T03:57:00.373Z,100913.48
2022-12-05T03:59:43.487Z,100912.23
2022-12-05T04:02:16.863Z,100907.52
2022-12-05T04:04:53.527Z,100899.74
2022-12-05T04:07:23.184Z,100906.59
2022-12-05T04:10:00.003Z,100910.36
2022-12-05T04:12:31.172Z,100910.12
2022-12-05T04:15:04.420Z,100906.80
2022-12-05T04:17:36.457Z,100910.52
2022-12-05T04:20:11.966Z,100908.73
2022-12-05T04:22:40.307Z,100910.98
2022-12-05T04:25:12.410Z,100908.77
2022-12-05T04:27:39.933Z,100906.75
2022-12-05T04:30:09.205Z,100912.14
2022-12-05T04:33:04.883Z,100908.54
2022-12-05T04:35:37.640Z,100912.54
2022-12-05T04:38:11.638Z,100912.71
2022-12-05T04:40:46.799Z,100911.46
2022-12-05T04:43:16.605Z,100914.23
2022-12-05T04:45:45.248Z,100914.55
2022-12-05T04:48:17.168Z,100910.77
2022-12-05T04:50:48.537Z,100914.82
2022-12-05T04:53:16.894Z,100916.03
2022-12-05T04:55:49.543Z,100910.66
2022-12-05T04:58:20.797Z,100899.66
2022-12-05T05:01:07.132Z,100889.76
2022-12-05T05:03:42.292Z,100889.17
2022-12-05T05:06:12.239Z,100880.27
2022-12-05T05:08:48.712Z,100880.52
2022-12-05T05:11:20.279Z,100889.20
2022-12-05T05:13:47.955Z,100890.77
2022-12-05T05:16:21.699Z,100890.08
2022-12-05T05:18:50.608Z,100890.85
2022-12-05T05:21:25.261Z,100896.48
2022-12-05T05:23:53.467Z,100896.23
2022-12-05T05:26:22.016Z,100900.49
2022-12-05T05:28:50.201Z,100901.46
2022-12-05T05:31:19.499Z,100901.27
2022-12-05T05:33:54.132Z,100899.37
2022-12-05T05:36:24.040Z,100904.14
2022-12-05T05:38:54.820Z,100910.58
2022-12-05T05:41:28.538Z,100916.14
2022-12-05T05:43:56.560Z,100916.92
2022-12-05T05:46:27.159Z,100921.66
2022-12-05T05:48:55.164Z,100920.45
2022-12-05T05:51:23.455Z,100915.92
2022-12-05T05:53:51.508Z,100919.58
2022-12-05T05:56:21.876Z,100916.65
2022-12-05T05:58:56.559Z,100919.67
2022-12-05T06:01:24.186Z,100922.50
2022-12-05T06:03:52.047Z,100922.86
2022-12-05T06:06:20.204Z,100917.65
2022-12-05T06:08:48.176Z,100920.23
2022-12-05T06:11:25.434Z,100926.11
2022-12-05T06:13:59.059Z,100930.41
2022-12-05T06:16:26.886Z,100929.52
2022-12-05T06:18:54.613Z,100929.37
2022-12-05T06:21:23.208Z,100933.08
2022-12-05T06:23:51.141Z,100940.08
2022-12-05T06:26:21.129Z,100939.61
2022-12-05T06:28:49.004Z,100942.64
2022-12-05T06:31:22.863Z,100950.15
2022-12-05T06:33:50.899Z,100944.88
2022-12-05T06:36:20.932Z,100943.77
2022-12-05T06:38:48.967Z,100943.17
2022-12-05T06:41:19.364Z,100946.40
2022-12-05T06:43:47.308Z,100944.94
2022-12-05T06:46:15.886Z,100941.19
2022-12-05T06:48:44.403Z,100944.91
2022-12-05T06:51:15.177Z,100951.95
2022-12-05T06:53:43.815Z,100952.54
2022-12-05T06:56:15.043Z,100951.19
2022-12-05T06:58:44.111Z,100949.69
2022-12-05T07:01:17.882Z,100951.30
2022-12-05T07:03:45.499Z,100949.27
2022-12-05T07:06:13.100Z,100947.18
2022-12-05T07:08:40.807Z,100952.03
2022-12-05T07:11:08.871Z,100958.49
2022-12-05T07:13:36.629Z,100967.98
2022-12-05T07:16:04.488Z,100972.93
2022-12-05T07:18:32.654Z,100971.31
2022-12-05T07:21:14.321Z,100963.89
2022-12-05T07:23:45.009Z,100962.17
2022-12-05T07:26:15.085Z,100966.45
2022-12-05T07:28:42.681Z,100967.57
2022-12-05T07:31:14.965Z,100970.60
2022-12-05T07:33:42.895Z,100971.34
2022-12-05T07:36:13.747Z,100974.52
2022-12-05T07:38:42.291Z,100979.45
2022-12-05T07:41:22.335Z,100989.44
2022-12-05T07:43:54.602Z,100989.66
2022-12-05T07:46:23.759Z,100992.19
2022-12-05T07:48:51.945Z,100994.27
2022-12-05T07:51:20.837Z,100992.85
2022-12-05T07:53:48.542Z,100995.60
2022-12-05T07:56:17.552Z,100995.80
2022-12-05T07:58:47.186Z,100997.84
2022-12-05T08:01:17.971Z,100998.27
2022-12-05T08:03:46.748Z,101003.07
2022-12-05T08:06:17.388Z,100999.22
2022-12-05T08:08:45.902Z,101006.30
2022-12-05T08:11:15.847Z,101009.42
2022-12-05T08:13:44.015Z,101006.08
2022-12-05T08:16:14.389Z,101004.27
2022-12-05T08:18:43.096Z,101008.71
2022-12-05T08:21:13.564Z,101007.39
2022-12-05T08:23:41.890Z,101009.30
2022-12-05T08:26:18.720Z,101013.80
2022-12-05T08:28:51.148Z,101011.00
2022-12-05T08:31:23.316Z,101010.52
2022-12-05T08:33:57.263Z,101015.11
2022-12-05T08:36:29.091Z,101013.99
2022-12-05T08:38:59.038Z,101014.00
2022-12-05T08:41:27.936Z,101014.96
2022-12-05T08:44:00.653Z,101013.29
2022-12-05T08:46:29.087Z,101012.29
2022-12-05T08:48:56.797Z,101006.32
2022-12-05T08:51:24.450Z,101006.74
2022-12-05T08:53:52.076Z,101003.84
2022-12-05T08:56:25.039Z,101002.86
2022-12-05T08:59:01.276Z,100998.58
2022-12-05T09:01:34.917Z,100999.55
2022-12-05T09:04:02.685Z,100998.98
2022-12-05T09:06:30.602Z,100997.54
2022-12-05T09:09:00.905Z,100997.42
2022-12-05T09:11:31.784Z,101001.27
2022-12-05T09:14:00.644Z,101001.25
2022-12-05T09:16:36.920Z,101000.50
2022-12-05T09:19:06.635Z,101003.26
2022-12-05T09:21:34.231Z,101004.61
2022-12-05T09:24:01.910Z,101000.20
2022-12-05T09:26:30.115Z,100996.08
2022-12-05T09:28:58.024Z,100994.52
2022-12-05T09:31:27.123Z,100994.02
2022-12-05T09:33:55.062Z,100995.16
2022-12-05T09:36:25.603Z,100991.59
2022-12-05T09:38:54.712Z,100993.67
2022-12-05T09:41:57.685Z,100991.41
2022-12-05T09:45:09.931Z,100993.88
2022-12-05T09:47:43.319Z,100994.74
2022-12-05T09:50:32.200Z,100987.55
2022-12-05T09:52:59.779Z,100980.61
2022-12-05T09:55:36.159Z,100975.30
2022-12-05T09:58:05.550Z,100977.65
2022-12-05T10:00:33.736Z,100978.50
2022-12-05T10:03:29.060Z,100973.53
2022-12-05T10:06:12.507Z,100965.27
2022-12-05T10:09:07.417Z,100965.97
2022-12-05T10:11:43.898Z,100970.38
2022-12-05T10:14:37.741Z,100976.88
2022-12-05T10:17:16.689Z,100968.74
2022-12-05T10:19:47.503Z,100966.00
2022-12-05T10:22:20.956Z,100962.98
2022-12-05T10:24:55.548Z,100957.84
2022-12-05T10:27:39.974Z,100945.16
2022-12-05T10:30:20.743Z,100940.75
2022-12-05T10:33:04.946Z,100932.70
2022-12-05T10:35:40.411Z,100938.70
2022-12-05T10:38:31.402Z,100933.51
2022-12-05T10:41:03.761Z,100922.39
2022-12-05T10:43:33.680Z,100918.11
2022-12-05T10:46:02.481Z,100919.54
2022-12-05T10:48:31.136Z,100915.81
2022-12-05T10:50:58.947Z,100914.06
2022-12-05T10:53:50.208Z,100907.31
2022-12-05T10:56:40.866Z,100888.29
2022-12-05T10:59:13.511Z,100894.73
2022-12-05T11:01:59.894Z,100902.04
2022-12-05T11:04:45.258Z,100900.14
2022-12-05T11:07:33.055Z,100905.00
2022-12-05T11:10:03.388Z,100903.52
2022-12-05T11:12:34.063Z,100904.55
2022-12-05T11:15:04.501Z,100897.86
2022-12-05T11:17:38.437Z,100890.95
2022-12-05T11:20:35.384Z,100890.10
2022-12-05T11:23:29.416Z,100889.52
2022-12-05T11:25:58.725Z,100888.84
2022-12-05T11:28:31.895Z,100888.95
2022-12-05T11:31:14.812Z,100896.33
2022-12-05T11:33:43.114Z,100898.56
2022-12-05T11:36:24.063Z,100897.31
2022-12-05T11:38:51.767Z,100888.83
2022-12-05T11:41:37.311Z,100885.90
2022-12-05T11:44:33.784Z,100887.34
2022-12-05T11:47:13.312Z,100889.50
2022-12-05T11:50:09.764Z,100888.58
2022-12-05T11:52:43.354Z,100884.40
2022-12-05T11:55:16.106Z,100877.20
2022-12-05T11:58:14.416Z,100875.05
2022-12-05T12:00:56.780Z,100868.68
2022-12-05T12:04:17.190Z,100869.03
2022-12-05T12:07:40.555Z,100856.29
2022-12-05T12:10:23.402Z,100853.86
2022-12-05T12:13:14.060Z,100857.00
2022-12-05T12:15:59.639Z,100862.67
2022-12-05T12:18:56.338Z,100855.38
2022-12-05T12:21:55.070Z,100847.23
2022-12-05T12:24:53.537Z,100841.24
2022-12-05T12:28:01.334Z,100843.51
2022-12-05T12:30:40.752Z,100848.25
2022-12-05T12:33:30.640Z,100846.51
2022-12-05T12:36:16.723Z,100836.65
2022-12-05T12:38:53.209Z,100832.91
2022-12-05T12:41:45.716Z,100828.43
2022-12-05T12:44:31.531Z,100823.20
2022-12-05T12:47:11.266Z,100819.02
2022-12-05T12:50:06.485Z,100827.15
2022-12-05T12:53:16.168Z,100832.35
2022-12-05T12:56:08.525Z,100829.48
2022-12-05T12:58:58.561Z,100835.80
2022-12-05T13:01:44.585Z,100833.98
2022-12-05T13:04:17.625Z,100830.69
2022-12-05T13:06:51.182Z,100833.30
2022-12-05T13:09:51.537Z,100828.21
2022-12-05T13:12:30.596Z,100823.33
2022-12-05T13:15:15.231Z,100820.90
2022-12-05T13:17:46.702Z,100814.98
2022-12-05T13:20:16.892Z,100814.67
2022-12-05T13:22:45.739Z,100817.64
2022-12-05T13:25:19.491Z,100815.84
2022-12-05T13:28:01.834Z,100818.61
2022-12-05T13:30:30.119Z,100821.95
2022-12-05T13:33:01.445Z,100815.86
2022-12-05T13:35:35.391Z,100808.88
2022-12-05T13:38:03.268Z,100807.06
2022-12-05T13:40:30.823Z,100805.96
2022-12-05T13:43:03.297Z,100805.30
2022-12-05T13:45:31.903Z,100803.79
2022-12-05T13:47:59.538Z,100804.26
2022-12-05T13:50:33.072Z,100808.25
2022-12-05T13:53:19.472Z,100810.00
2022-12-05T13:56:18.253Z,100812.09
2022-12-05T13:58:51.333Z,100819.11
2022-12-05T14:01:25.252Z,100818.10
2022-12-05T14:03:58.527Z,100816.92
2022-12-05T14:06:34.974Z,100814.16
2022-12-05T14:09:03.487Z,100814.71
2022-12-05T14:11:31.268Z,100820.67
2022-12-05T14:14:04.232Z,100825.04
2022-12-05T14:16:32.807Z,100825.60
2022-12-05T14:19:03.319Z,100827.91
2022-12-05T14:21:43.164Z,100822.02
2022-12-05T14:24:10.733Z,100814.54
2022-12-05T14:26:43.919Z,100813.33
2022-12-05T14:29:30.086Z,100811.39
2022-12-05T14:32:24.994Z,100811.58
2022-12-05T14:34:56.440Z,100810.88
2022-12-05T14:37:44.431Z,100810.53
2022-12-05T14:40:23.926Z,100817.86
2022-12-05T14:42:54.192Z,100817.83
2022-12-05T14:45:33.663Z,100811.73
2022-12-05T14:48:14.959Z,100812.77
2022-12-05T14:50:47.914Z,100815.17
2022-12-05T14:53:18.090Z,100808.02
2022-12-05T14:55:47.831Z,100805.59
2022-12-05T14:58:24.419Z,100802.83
2022-12-05T15:01:00.789Z,100806.83
2022-12-05T15:03:37.245Z,100808.85
2022-12-05T15:06:11.081Z,100802.23
2022-12-05T15:08:49.489Z,100798.20
2022-12-05T15:11:20.117Z,100797.33
2022-12-05T15:13:47.789Z,100793.66
2022-12-05T15:16:19.537Z,100793.30
2022-12-05T15:18:50.788Z,100793.48
2022-12-05T15:21:26.655Z,100800.09
2022-12-05T15:24:20.607Z,100803.58
2022-12-05T15:26:52.681Z,100804.08
2022-12-05T15:29:20.207Z,100794.83
2022-12-05T15:31:55.536Z,100792.39
2022-12-05T15:34:51.155Z,100796.20
2022-12-05T15:37:23.664Z,100797.77
2022-12-05T15:39:51.228Z,100798.10
2022-12-05T15:42:19.173Z,100797.53
2022-12-05T15:44:46.842Z,100792.64
2022-12-05T15:47:25.455Z,100783.09
2022-12-05T15:49:53.089Z,100775.44
2022-12-05T15:52:55.949Z,100775.97
2022-12-05T15:55:36.351Z,100767.27
2022-12-05T15:58:26.906Z,100760.39
2022-12-05T16:01:11.806Z,100756.51
2022-12-05T16:04:05.725Z,100751.74
2022-12-05T16:06:36.212Z,100750.29
2022-12-05T16:09:11.828Z,100752.85
2022-12-05T16:11:40.156Z,100755.60
2022-12-05T16:14:08.368Z,100761.17
2022-12-05T16:16:38.574Z,100768.30
2022-12-05T16:19:15.009Z,100766.00
2022-12-05T16:21:58.903Z,100762.85
2022-12-05T16:24:33.140Z,100772.05
2022-12-05T16:27:06.340Z,100780.08
2022-12-05T16:29:34.957Z,100782.86
2022-12-05T16:32:06.729Z,100778.52
2022-12-05T16:34:34.584Z,100773.44
2022-12-05T16:37:02.370Z,100770.45
2022-12-05T16:39:30.031Z,100771.31
2022-12-05T16:41:57.909Z,100769.58
2022-12-05T16:44:28.251Z,100769.58
2022-12-05T16:46:56.083Z,100768.52
2022-12-05T16:49:33.719Z,100771.96
2022-12-05T16:52:10.283Z,100771.06
2022-12-05T16:54:38.370Z,100773.33
2022-12-05T16:57:06.279Z,100777.51
2022-12-05T16:59:37.671Z,100781.51
2022-12-05T17:02:11.834Z,100783.77
2022-12-05T17:04:39.989Z,100776.44
2022-12-05T17:07:07.758Z,100780.83
2022-12-05T17:09:35.404Z,100773.90
2022-12-05T17:12:11.397Z,100772.17
2022-12-05T17:14:39.056Z,100775.16
2022-12-05T17:17:14.489Z,100769.77
2022-12-05T17:19:42.109Z,100769.39
2022-12-05T17:22:12.079Z,100766.77
2022-12-05T17:24:39.745Z,100764.81
2022-12-05T17:27:12.005Z,100763.74
2022-12-05T17:29:39.602Z,100759.75
2022-12-05T17:32:07.190Z,100749.81
2022-12-05T17:34:34.768Z,100741.81
2022-12-05T17:37:02.423Z,100731.39
2022-12-05T17:39:29.985Z,100725.30
2022-12-05T17:41:57.561Z,100720.97
2022-12-05T17:44:25.728Z,100716.77
2022-12-05T17:46:54.446Z,100719.17
2022-12-05T17:49:22.056Z,100714.42
2022-12-05T17:54:37.256Z,100715.18
2022-12-05T17:57:04.826Z,100715.94
2022-12-05T17:59:32.413Z,100717.23
2022-12-05T18:02:00.198Z,100723.48
2022-12-05T18:04:27.815Z,100732.67
2022-12-05T18:06:55.419Z,100736.69
2022-12-05T18:09:23.162Z,100740.17
2022-12-05T18:11:51.759Z,100741.23
2022-12-05T18:14:19.332Z,100742.63
2022-12-05T18:16:46.953Z,100738.79
2022-12-05T18:19:14.799Z,100732.55
2022-12-05T18:21:42.367Z,100726.85
2022-12-05T18:24:10.593Z,100728.99
2022-12-05T18:26:38.197Z,100728.35
2022-12-05T18:29:05.851Z,100726.13
2022-12-05T18:31:33.512Z,100719.67
2022-12-05T18:34:01.146Z,100711.84
2022-12-05T18:36:28.760Z,100710.11
2022-12-05T18:38:56.950Z,100703.98
2022-12-05T18:41:25.643Z,100707.96
2022-12-05T18:43:53.673Z,100707.45
2022-12-05T18:46:21.496Z,100705.38
2022-12-05T18:48:49.128Z,100704.30
2022-12-05T18:51:22.363Z,100701.63
2022-12-05T18:53:52.865Z,100703.98
2022-12-05T18:56:25.138Z,100707.57
2022-12-05T18:59:01.830Z,100702.81
2022-12-05T19:01:30.367Z,100698.79
2022-12-05T19:03:59.231Z,100701.39
2022-12-05T19:06:29.212Z,100701.92
2022-12-05T19:08:59.185Z,100704.52
2022-12-05T19:11:28.053Z,100704.70
2022-12-05T19:14:03.839Z,100705.73
2022-12-05T19:16:33.426Z,100704.14
2022-12-05T19:19:03.604Z,100708.47
2022-12-05T19:21:33.242Z,100705.83
2022-12-05T19:24:04.726Z,100706.02
2022-12-05T19:26:32.657Z,100702.20
2022-12-05T19:29:00.752Z,100699.77
2022-12-05T19:31:29.051Z,100699.19
2022-12-05T19:34:00.184Z,100691.30
2022-12-05T19:36:35.677Z,100688.48
2022-12-05T19:39:10.447Z,100687.45
2022-12-05T19:41:38.088Z,100686.39
2022-12-05T19:44:05.898Z,100680.83
2022-12-05T19:46:34.143Z,100680.27
2022-12-05T19:49:21.260Z,100676.79
2022-12-05T19:51:51.527Z,100676.84
2022-12-05T19:54:19.212Z,100675.15
2022-12-05T19:56:46.807Z,100670.64
2022-12-05T19:59:15.488Z,100669.29
2022-12-05T20:01:43.245Z,100667.75
2022-12-05T20:04:14.095Z,100665.48
2022-12-05T20:06:44.075Z,100670.36
2022-12-05T20:09:13.313Z,100672.11
2022-12-05T20:11:43.899Z,100669.16
2022-12-05T20:14:13.326Z,100669.48
2022-12-05T20:16:41.439Z,100670.17
2022-12-05T20:19:09.867Z,100662.52
2022-12-05T20:21:38.889Z,100665.98
2022-12-05T20:24:07.590Z,100668.44
2022-12-05T20:26:37.908Z,100673.84
2022-12-05T20:29:09.844Z,100671.58
2022-12-05T20:31:39.708Z,100674.37
2022-12-05T20:34:10.201Z,100677.35
2022-12-05T20:36:37.863Z,100680.85
2022-12-05T20:39:08.178Z,100677.77
2022-12-05T20:41:35.892Z,100670.65
2022-12-05T20:44:06.804Z,100671.23
2022-12-05T20:46:35.158Z,100664.98
2022-12-05T20:49:02.961Z,100663.08
2022-12-05T20:51:33.050Z,100663.08
2022-12-05T20:54:03.152Z,100662.89
2022-12-05T20:56:32.505Z,100659.76
2022-12-05T20:59:03.668Z,100652.64
2022-12-05T21:01:34.056Z,100652.48
2022-12-05T21:04:03.607Z,100645.70
2022-12-05T21:06:34.227Z,100636.83
2022-12-05T21:09:04.021Z,100631.41
2022-12-05T21:11:31.639Z,100635.42
2022-12-05T21:14:00.470Z,100631.20
2022-12-05T21:16:28.390Z,100628.80
2022-12-05T21:18:56.349Z,100627.90
2022-12-05T21:21:26.426Z,100629.63
2022-12-05T21:23:57.458Z,100633.46
2022-12-05T21:26:27.942Z,100628.05
2022-12-05T21:28:56.146Z,100622.08
2022-12-05T21:31:25.809Z,100611.27
2022-12-05T21:33:55.993Z,100610.91
2022-12-05T21:36:24.948Z,100618.22
2022-12-05T21:38:56.336Z,100622.73
2022-12-05T21:41:25.519Z,100622.38
2022-12-05T21:43:55.213Z,100627.05
2022-12-05T21:46:26.871Z,100625.11
2022-12-05T21:48:54.825Z,100622.33
2022-12-05T21:51:22.873Z,100611.52
2022-12-05T21:53:50.617Z,100597.23
2022-12-05T21:56:21.373Z,100603.12
2022-12-05T21:58:49.151Z,100618.06
2022-12-05T22:01:19.700Z,100619.13
2022-12-05T22:03:47.784Z,100620.85
2022-12-05T22:06:16.965Z,100622.55
2022-12-05T22:08:44.651Z,100612.27
2022-12-05T22:11:14.889Z,100612.10
2022-12-05T22:13:43.351Z,100603.04
2022-12-05T22:16:12.552Z,100598.12
2022-12-05T22:18:41.051Z,100590.63
2022-12-05T22:21:20.208Z,100590.11
2022-12-05T22:23:48.796Z,100597.43
2022-12-05T22:26:18.365Z,100599.48
2022-12-05T22:28:46.759Z,100600.65
2022-12-05T22:31:16.121Z,100598.39
2022-12-05T22:33:45.128Z,100596.61
2022-12-05T22:36:15.418Z,100600.42
2022-12-05T22:38:45.173Z,100593.25
2022-12-05T22:41:23.776Z,100586.27
2022-12-05T22:43:59.835Z,100580.36
2022-12-05T22:46:28.299Z,100570.94
2022-12-05T22:48:56.219Z,100564.66
2022-12-05T22:51:23.828Z,100566.02
2022-12-05T22:53:52.779Z,100571.06
2022-12-05T22:56:21.805Z,100569.80
2022-12-05T22:58:52.601Z,100571.54
2022-12-05T23:01:23.018Z,100575.00
2022-12-05T23:03:55.764Z,100569.91
2022-12-05T23:06:23.502Z,100560.69
2022-12-05T23:08:51.227Z,100556.48
2022-12-05T23:11:19.622Z,100563.73
2022-12-05T23:13:49.037Z,100568.39
2022-12-05T23:16:23.030Z,100554.09
2022-12-05T23:18:51.688Z,100546.39
2022-12-05T23:21:20.790Z,100543.06
2022-12-05T23:23:50.110Z,100545.84
2022-12-05T23:26:19.940Z,100535.02
2022-12-05T23:28:47.544Z,100528.77
2022-12-05T23:31:15.987Z,100525.64
2022-12-05T23:33:43.816Z,100527.69
2022-12-05T23:36:12.618Z,100521.41
2022-12-05T23:38:41.595Z,100517.58
2022-12-05T23:41:18.679Z,100517.02
2022-12-05T23:43:48.073Z,100513.52
2022-12-05T23:46:17.588Z,100517.86
2022-12-05T23:48:45.465Z,100522.89
2022-12-05T23:51:25.216Z,100520.77
2022-12-05T23:53:55.691Z,100507.36
2022-12-05T23:56:26.912Z,100500.20
2022-12-05T23:58:56.097Z,100501.71
